Time;durP1;ratioP1;P1;durP2;ratioP2;P2;SDS_P1;SDS_P2;PMS_P1;PMS_P2;Temp;Humidity;BMP_temperature;BMP_pressure;BME280_temperature;BME280_humidity;BME280_pressure;Samples;Min_cycle;Max_cycle;Signal;HPM_P1;HPM_P2
2022/04/10 00:01:49;;;;;;;0.13;0.10;;;-1.70;83.20;;;;;;19843949;29;20047;-51
2022/04/10 00:11:52;;;;;;;0.88;0.10;;;-1.70;82.00;;;;;;19840517;29;20498;-51
2022/04/10 00:21:55;;;;;;;1.15;0.10;;;-1.10;78.10;;;;;;19822535;29;20392;-57
2022/04/10 00:31:59;;;;;;;0.20;0.10;;;-0.70;76.80;;;;;;19821385;29;20054;-50
2022/04/10 00:42:01;;;;;;;0.28;0.17;;;-0.40;74.00;;;;;;19818972;29;20039;-50
2022/04/10 00:52:08;;;;;;;0.10;0.10;;;-0.40;74.40;;;;;;19879970;29;20138;-51
2022/04/10 01:02:10;;;;;;;0.32;0.20;;;-0.50;76.10;;;;;;19829129;29;20407;-51
2022/04/10 01:12:13;;;;;;;1.80;0.20;;;-0.90;77.10;;;;;;19822859;29;20043;-49
2022/04/10 01:22:36;;;;;;;0.32;0.10;;;-1.20;78.10;;;;;;19826174;29;20039;-50
2022/04/10 01:32:43;;;;;;;0.57;0.20;;;-1.20;77.00;;;;;;19856370;29;20075;-56
2022/04/10 01:42:46;;;;;;;0.28;0.10;;;-0.70;74.90;;;;;;19836593;29;20047;-49
2022/04/10 01:52:49;;;;;;;0.70;0.30;;;-0.80;75.20;;;;;;19821234;29;20111;-52
2022/04/10 02:02:53;;;;;;;1.10;0.20;;;-0.90;76.60;;;;;;19828262;29;20667;-57
2022/04/10 02:12:58;;;;;;;0.10;0.10;;;-1.20;78.20;;;;;;19852447;29;20059;-51
2022/04/10 02:23:02;;;;;;;0.32;0.20;;;-1.40;78.30;;;;;;19822067;29;20047;-57
2022/04/10 02:33:04;;;;;;;0.28;0.13;;;-1.50;78.10;;;;;;19881871;29;20072;-49
2022/04/10 02:43:10;;;;;;;1.02;0.10;;;-1.50;78.90;;;;;;19870705;29;20342;-50
2022/04/10 02:53:12;;;;;;;0.45;0.20;;;-1.70;80.20;;;;;;19869365;29;20082;-51
2022/04/10 03:03:15;;;;;;;0.47;0.17;;;-1.40;77.20;;;;;;19866658;29;20116;-48
2022/04/10 03:13:37;;;;;;;0.43;0.10;;;-1.20;76.10;;;;;;19831050;29;20067;-48
2022/04/10 03:24:02;;;;;;;0.90;0.20;;;-1.10;75.90;;;;;;19864432;29;20082;-51
2022/04/10 03:34:23;;;;;;;0.28;0.13;;;-1.20;76.40;;;;;;19879597;29;20067;-56
2022/04/10 03:44:43;;;;;;;0.93;0.33;;;-1.30;77.80;;;;;;19849269;29;20082;-56
2022/04/10 03:55:04;;;;;;;1.13;0.30;;;-1.40;79.30;;;;;;19877761;29;20035;-53
2022/04/10 04:05:28;;;;;;;1.48;0.38;;;-1.50;80.20;;;;;;19900995;29;20051;-56
2022/04/10 04:15:49;;;;;;;0.20;0.20;;;-1.70;82.20;;;;;;19887790;29;20047;-55
2022/04/10 04:26:10;;;;;;;0.40;0.20;;;-2.30;86.20;;;;;;19801908;29;20495;-49
2022/04/10 04:36:32;;;;;;;1.30;0.25;;;-2.50;87.60;;;;;;19789317;29;20126;-56
2022/04/10 04:46:55;;;;;;;1.23;0.27;;;-2.50;87.00;;;;;;19825828;29;20055;-56
2022/04/10 04:57:15;;;;;;;0.50;0.20;;;-2.10;84.80;;;;;;19847399;29;20491;-56
2022/04/10 05:07:37;;;;;;;0.65;0.20;;;-2.00;84.20;;;;;;19853191;29;20062;-48
2022/04/10 05:17:57;;;;;;;2.73;0.20;;;-1.60;79.70;;;;;;19819334;29;20093;-49
2022/04/10 05:28:19;;;;;;;0.55;0.22;;;-1.10;75.70;;;;;;19815227;29;20503;-49
2022/04/10 05:38:39;;;;;;;;;;;-0.80;75.20;;;;;;19883281;29;20067;-51
2022/04/10 05:49:00;;;;;;;0.20;0.10;;;-0.70;76.40;;;;;;19828990;29;19921;-53
2022/04/10 05:59:22;;;;;;;0.85;0.30;;;-0.70;75.60;;;;;;19809080;29;20075;-54
2022/04/10 06:09:43;;;;;;;0.67;0.20;;;-0.50;73.90;;;;;;19811742;29;20051;-55
2022/04/10 06:20:04;;;;;;;0.75;0.30;;;-0.30;73.00;;;;;;19811385;29;20036;-56
2022/04/10 06:30:11;;;;;;;0.30;0.10;;;-0.10;72.40;;;;;;19853162;29;20046;-51
2022/04/10 06:40:21;;;;;;;;;;;0.10;72.60;;;;;;19833891;29;20047;-50
2022/04/10 06:50:26;;;;;;;0.40;0.20;;;1.30;75.20;;;;;;19880033;29;20397;-57
2022/04/10 07:00:32;;;;;;;1.77;0.15;;;2.20;67.50;;;;;;19805639;29;20094;-54
2022/04/10 07:10:36;;;;;;;0.30;0.10;;;2.80;68.60;;;;;;19818230;29;20046;-57
2022/04/10 07:20:40;;;;;;;1.20;0.20;;;3.00;66.70;;;;;;19826628;29;20092;-56
2022/04/10 07:30:46;;;;;;;0.82;0.30;;;3.70;76.10;;;;;;19803981;29;20096;-55
2022/04/10 07:40:52;;;;;;;0.60;0.20;;;4.10;67.20;;;;;;19829277;29;20046;-55
2022/04/10 07:51:04;;;;;;;0.10;0.10;;;5.20;87.80;;;;;;19817144;29;20044;-53
2022/04/10 08:01:33;;;;;;;0.65;0.20;;;5.00;62.50;;;;;;19833268;29;20062;-57
2022/04/10 08:11:41;;;;;;;0.85;0.30;;;6.00;66.40;;;;;;19864067;29;20058;-53
2022/04/10 08:21:44;;;;;;;0.45;0.30;;;6.60;67.60;;;;;;19824279;29;20039;-55
2022/04/10 08:31:48;;;;;;;1.65;0.15;;;6.70;68.90;;;;;;19799196;29;20501;-54
2022/04/10 08:41:52;;;;;;;0.65;0.30;;;7.20;63.00;;;;;;19799132;29;20104;-55
2022/04/10 08:51:56;;;;;;;0.30;0.20;;;7.50;65.80;;;;;;19801690;29;20099;-49
2022/04/10 09:01:59;;;;;;;0.50;0.20;;;7.80;62.40;;;;;;19825678;29;20039;-53
2022/04/10 09:12:02;;;;;;;0.73;0.25;;;8.10;61.20;;;;;;19826218;29;20115;-57
2022/04/10 09:22:28;;;;;;;0.77;0.20;;;8.20;62.80;;;;;;19852512;29;20047;-54
2022/04/10 09:33:00;;;;;;;0.30;0.20;;;8.60;62.80;;;;;;19815716;29;20051;-57
2022/04/10 09:43:09;;;;;;;0.30;0.20;;;8.70;57.80;;;;;;19673710;30;20127;-57
2022/04/10 09:53:12;;;;;;;0.85;0.20;;;8.60;60.50;;;;;;19676935;29;20158;-55
2022/04/10 10:03:16;;;;;;;0.85;0.30;;;8.90;56.80;;;;;;19706346;30;20198;-54
2022/04/10 10:13:26;;;;;;;0.68;0.20;;;8.70;61.40;;;;;;19713753;29;20154;-55
2022/04/10 10:23:30;;;;;;;0.50;0.20;;;9.60;60.50;;;;;;19828868;29;20552;-54
2022/04/10 10:33:34;;;;;;;0.40;0.28;;;9.90;56.20;;;;;;19836929;29;20144;-54
2022/04/10 10:43:38;;;;;;;0.73;0.30;;;9.20;59.50;;;;;;19833935;29;20047;-53
2022/04/10 10:53:52;;;;;;;0.50;0.40;;;9.80;59.50;;;;;;19875993;29;20099;-53
2022/04/10 11:04:09;;;;;;;4.05;0.38;;;10.10;54.60;;;;;;19879941;29;20047;-55
2022/04/10 11:14:35;;;;;;;0.80;0.30;;;10.50;62.30;;;;;;19864373;29;20054;-55
2022/04/10 11:24:37;;;;;;;1.10;0.45;;;11.20;66.50;;;;;;19824310;29;20463;-54
2022/04/10 11:34:41;;;;;;;1.77;0.80;;;11.60;64.90;;;;;;19803280;29;20043;-54
2022/04/10 11:44:47;;;;;;;1.00;0.63;;;11.90;67.00;;;;;;19825187;29;20039;-56
2022/04/10 11:54:52;;;;;;;0.82;0.73;;;12.00;66.10;;;;;;19868683;29;20107;-57
2022/04/10 12:05:00;;;;;;;0.80;0.60;;;12.40;67.00;;;;;;19816911;29;20055;-57
2022/04/10 12:15:19;;;;;;;3.03;1.50;;;12.30;66.60;;;;;;19861093;29;20119;-56
2022/04/10 12:25:22;;;;;;;3.03;1.77;;;12.80;69.80;;;;;;19804274;29;20038;-57
2022/04/10 12:35:35;;;;;;;2.95;1.70;;;12.80;70.60;;;;;;19824831;29;20567;-54
2022/04/10 12:45:40;;;;;;;2.42;1.60;;;12.40;68.20;;;;;;19816238;29;20079;-57
2022/04/10 12:55:42;;;;;;;2.95;1.90;;;12.10;71.30;;;;;;19774883;29;20071;-56
2022/04/10 13:06:01;;;;;;;4.13;1.90;;;12.10;72.00;;;;;;19774653;29;20075;-56
2022/04/10 13:16:10;;;;;;;4.00;1.83;;;11.80;71.80;;;;;;19803554;29;20124;-57
2022/04/10 13:26:24;;;;;;;5.18;1.85;;;10.90;75.30;;;;;;19781366;29;20113;-58
2022/04/10 13:36:26;;;;;;;2.75;2.08;;;11.20;70.60;;;;;;19860832;29;20078;-55
2022/04/10 13:46:29;;;;;;;2.67;1.90;;;10.70;71.70;;;;;;19844174;29;20073;-54
2022/04/10 13:56:32;;;;;;;5.13;1.98;;;10.00;75.40;;;;;;19801918;29;20051;-51
2022/04/10 14:06:35;;;;;;;3.30;1.70;;;9.50;72.50;;;;;;19874395;29;20091;-54
2022/04/10 14:16:38;;;;;;;3.17;1.85;;;9.10;74.70;;;;;;19860856;29;20043;-52
2022/04/10 14:26:43;;;;;;;2.75;1.75;;;9.00;72.50;;;;;;19849107;29;20139;-52
2022/04/10 14:36:49;;;;;;;2.45;1.88;;;7.80;76.40;;;;;;19860907;29;20096;-52
2022/04/10 14:46:53;;;;;;;4.25;2.17;;;7.00;77.50;;;;;;19806879;29;20104;-57
2022/04/10 14:56:56;;;;;;;2.92;1.70;;;8.30;76.90;;;;;;19805471;29;20119;-54
2022/04/10 15:06:59;;;;;;;2.80;1.85;;;8.30;74.60;;;;;;19804915;29;20104;-56
2022/04/10 15:17:02;;;;;;;2.53;1.70;;;8.00;75.70;;;;;;19806349;29;20051;-57
2022/04/10 15:27:06;;;;;;;3.40;2.05;;;8.30;75.40;;;;;;19803914;29;20499;-57
2022/04/10 15:37:08;;;;;;;2.83;1.70;;;8.60;74.40;;;;;;19803078;29;20096;-53
2022/04/10 15:47:11;;;;;;;3.35;2.15;;;7.90;76.20;;;;;;19802618;29;20043;-54
2022/04/10 15:57:15;;;;;;;3.53;2.05;;;6.90;77.10;;;;;;19816991;29;20071;-49
2022/04/10 16:07:18;;;;;;;3.05;1.88;;;6.40;78.30;;;;;;19839387;29;20787;-52
2022/04/10 16:17:20;;;;;;;4.05;2.08;;;6.00;78.30;;;;;;19832398;29;20357;-57
2022/04/10 16:37:45;;;;;;;5.07;3.25;;;5.80;79.80;;;;;;19799479;29;20077;-57
2022/04/10 16:47:48;;;;;;;6.20;3.50;;;5.60;82.40;;;;;;19869053;29;20080;-57
2022/04/10 16:57:51;;;;;;;6.78;3.25;;;5.20;84.10;;;;;;19862687;29;20109;-50
2022/04/10 17:07:54;;;;;;;5.80;3.10;;;4.80;86.10;;;;;;19824935;29;20055;-51
2022/04/10 17:17:56;;;;;;;5.53;2.58;;;4.50;87.20;;;;;;19798439;29;20066;-49
2022/04/10 17:27:59;;;;;;;5.93;3.28;;;4.20;88.90;;;;;;19798407;29;20077;-48
2022/04/10 17:38:02;;;;;;;5.22;3.50;;;3.90;89.30;;;;;;19868549;29;20139;-52
2022/04/10 17:48:05;;;;;;;5.50;3.03;;;3.50;90.50;;;;;;19883601;29;20143;-52
2022/04/10 17:58:07;;;;;;;5.35;3.40;;;3.10;91.20;;;;;;19865688;29;20547;-48
2022/04/10 18:08:13;;;;;;;10.38;3.47;;;2.70;91.80;;;;;;19885901;29;20043;-49
2022/04/10 18:18:15;;;;;;;4.90;3.33;;;2.40;92.70;;;;;;19808880;29;20479;-51
2022/04/10 18:28:18;;;;;;;4.55;2.85;;;2.30;93.10;;;;;;19815896;29;20596;-53
2022/04/10 18:38:20;;;;;;;5.75;3.72;;;2.20;93.70;;;;;;19819224;29;20066;-51
2022/04/10 18:58:44;;;;;;;;;;;1.90;94.80;;;;;;19881013;29;20498;-57
2022/04/10 19:08:48;;;;;;;5.93;3.28;;;1.80;95.50;;;;;;19893400;29;19956;-57
2022/04/10 19:18:51;;;;;;;5.55;3.60;;;2.10;94.60;;;;;;19920055;29;20081;-57
2022/04/10 19:28:55;;;;;;;5.40;2.70;;;2.40;94.10;;;;;;19836275;29;20112;-48
2022/04/10 19:38:58;;;;;;;5.60;2.63;;;2.30;94.00;;;;;;19823325;29;20047;-52
2022/04/10 19:49:01;;;;;;;5.45;3.05;;;2.10;94.20;;;;;;19802765;29;20077;-57
2022/04/10 19:59:05;;;;;;;3.92;2.45;;;1.90;94.90;;;;;;19809134;29;20082;-56
2022/04/10 20:09:08;;;;;;;4.88;2.50;;;1.70;95.40;;;;;;19805325;29;20400;-56
2022/04/10 20:19:12;;;;;;;5.85;2.63;;;1.60;95.10;;;;;;19826027;29;20130;-52
2022/04/10 20:29:14;;;;;;;6.70;2.83;;;1.60;94.80;;;;;;19801198;29;20112;-51
2022/04/10 20:39:17;;;;;;;4.50;2.72;;;1.30;95.40;;;;;;19857288;29;20494;-52
2022/04/10 20:49:20;;;;;;;4.50;2.40;;;1.00;96.20;;;;;;19800747;29;20039;-50
2022/04/10 20:59:23;;;;;;;6.22;2.45;;;0.80;96.50;;;;;;19820930;29;20161;-49
2022/04/10 21:09:26;;;;;;;4.03;2.53;;;0.70;96.70;;;;;;19849544;29;20072;-56
2022/04/10 21:19:29;;;;;;;5.70;2.83;;;0.70;96.80;;;;;;19887721;29;20047;-50
2022/04/10 21:29:32;;;;;;;10.00;2.60;;;0.60;97.20;;;;;;19853448;29;20441;-52
2022/04/10 21:39:35;;;;;;;7.75;2.58;;;0.60;97.40;;;;;;19830570;29;20469;-50
2022/04/10 21:49:37;;;;;;;3.83;2.20;;;0.60;96.40;;;;;;19886724;29;20107;-48
2022/04/10 21:59:40;;;;;;;4.18;2.53;;;0.60;96.60;;;;;;19880857;29;20103;-52
2022/04/10 22:09:42;;;;;;;4.13;2.28;;;0.20;97.60;;;;;;19869286;29;20042;-49
2022/04/10 22:19:45;;;;;;;5.43;2.20;;;-0.10;97.40;;;;;;19867234;29;20051;-49
2022/04/10 22:29:48;;;;;;;3.95;2.00;;;-0.30;97.80;;;;;;19871536;29;20111;-50
2022/04/10 22:39:51;;;;;;;4.18;1.80;;;-0.40;98.00;;;;;;19882238;29;20095;-47
2022/04/10 22:49:54;;;;;;;4.05;2.22;;;-0.50;98.20;;;;;;19832541;29;20100;-52
2022/04/10 22:59:56;;;;;;;3.38;1.92;;;-0.50;98.10;;;;;;19874396;29;20078;-50
2022/04/10 23:09:59;;;;;;;5.10;2.40;;;-0.60;98.50;;;;;;19865517;29;20100;-53
2022/04/10 23:20:02;;;;;;;4.35;1.98;;;-0.70;98.70;;;;;;19860268;29;20112;-58
2022/04/10 23:30:06;;;;;;;3.65;2.08;;;-0.90;98.80;;;;;;19838503;29;20043;-54
2022/04/10 23:40:09;;;;;;;4.75;2.30;;;-1.10;99.30;;;;;;19803166;29;20068;-48
2022/04/10 23:50:12;;;;;;;2.78;1.67;;;-1.10;99.40;;;;;;19829226;29;20050;-58
